createdAt,value
2023-02-08T04:00:35.580Z,1033.33
2023-02-08T04:01:35.577Z,1033.36
2023-02-08T04:02:35.557Z,1033.36
2023-02-08T04:03:35.548Z,1033.35
2023-02-08T04:04:35.547Z,1033.40
2023-02-08T04:05:35.552Z,1033.37
2023-02-08T04:06:35.561Z,1033.34
2023-02-08T04:07:35.557Z,1033.37
2023-02-08T04:08:35.551Z,1033.32
2023-02-08T04:09:37.845Z,1033.36
2023-02-08T04:10:35.577Z,1033.30
2023-02-08T04:11:35.559Z,1033.34
2023-02-08T04:12:35.559Z,1033.31
2023-02-08T04:13:35.556Z,1033.35
2023-02-08T04:14:33.877Z,1033.35
2023-02-08T04:15:35.111Z,1033.35
2023-02-08T04:16:35.602Z,1033.36
2023-02-08T04:17:35.069Z,1033.35
2023-02-08T04:18:34.867Z,1033.36
2023-02-08T04:19:34.846Z,1033.38
2023-02-08T04:20:34.838Z,1033.35
2023-02-08T04:21:34.836Z,1033.37
2023-02-08T04:22:35.578Z,1033.35
2023-02-08T04:23:35.072Z,1033.36
2023-02-08T04:24:33.817Z,1033.37
2023-02-08T04:25:35.078Z,1033.37
2023-02-08T04:26:34.802Z,1033.39
2023-02-08T04:27:35.579Z,1033.41
2023-02-08T04:28:35.584Z,1033.43
2023-02-08T04:29:33.794Z,1033.41
2023-02-08T04:30:35.608Z,1033.41
2023-02-08T04:31:34.864Z,1033.45
2023-02-08T04:32:35.617Z,1033.40
2023-02-08T04:33:35.572Z,1033.42
2023-02-08T04:34:35.572Z,1033.41
2023-02-08T04:35:35.572Z,1033.43
2023-02-08T04:36:35.611Z,1033.36
2023-02-08T04:37:35.584Z,1033.38
2023-02-08T04:38:35.578Z,1033.39
2023-02-08T04:39:35.575Z,1033.41
2023-02-08T04:40:34.740Z,1033.42
2023-02-08T04:41:35.096Z,1033.43
2023-02-08T04:42:33.726Z,1033.46
2023-02-08T04:43:33.730Z,1033.46
2023-02-08T04:44:33.721Z,1033.46
2023-02-08T04:45:33.769Z,1033.44
2023-02-08T04:46:35.106Z,1033.46
2023-02-08T04:47:33.705Z,1033.48
2023-02-08T04:48:35.122Z,1033.45
2023-02-08T04:49:35.588Z,1033.44
2023-02-08T04:50:35.618Z,1033.47
2023-02-08T04:51:35.599Z,1033.44
2023-02-08T04:52:35.587Z,1033.43
2023-02-08T04:53:35.590Z,1033.43
2023-02-08T04:54:35.599Z,1033.42
2023-02-08T04:55:35.600Z,1033.40
2023-02-08T04:56:35.608Z,1033.39
2023-02-08T04:57:35.596Z,1033.37
2023-02-08T04:58:34.649Z,1033.37
2023-02-08T04:59:35.624Z,1033.38
2023-02-08T05:00:35.596Z,1033.39
2023-02-08T05:01:35.622Z,1033.34
2023-02-08T05:02:35.598Z,1033.41
2023-02-08T05:03:35.598Z,1033.40
2023-02-08T05:04:35.625Z,1033.40
2023-02-08T05:05:35.611Z,1033.40
2023-02-08T05:06:35.122Z,1033.41
2023-02-08T05:07:35.097Z,1033.39
2023-02-08T05:08:35.103Z,1033.37
2023-02-08T05:09:34.618Z,1033.34
2023-02-08T05:10:35.108Z,1033.36
2023-02-08T05:11:34.576Z,1033.38
2023-02-08T05:12:34.568Z,1033.36
2023-02-08T05:13:34.566Z,1033.34
2023-02-08T05:14:34.570Z,1033.35
2023-02-08T05:15:35.144Z,1033.34
2023-02-08T05:16:34.552Z,1033.35
2023-02-08T05:17:34.558Z,1033.36
2023-02-08T05:18:34.620Z,1033.37
2023-02-08T05:19:34.547Z,1033.37
2023-02-08T05:20:35.135Z,1033.37
2023-02-08T05:21:35.117Z,1033.33
2023-02-08T05:22:35.104Z,1033.35
2023-02-08T05:23:35.121Z,1033.32
2023-02-08T05:24:35.109Z,1033.34
2023-02-08T05:25:35.128Z,1033.31
2023-02-08T05:26:35.111Z,1033.34
2023-02-08T05:27:35.122Z,1033.33
2023-02-08T05:28:35.121Z,1033.37
2023-02-08T05:29:35.131Z,1033.37
2023-02-08T05:30:35.110Z,1033.34
2023-02-08T05:31:35.253Z,1033.36
2023-02-08T05:32:35.133Z,1033.33
2023-02-08T05:33:35.118Z,1033.33
2023-02-08T05:34:35.126Z,1033.32
2023-02-08T05:35:35.121Z,1033.35
2023-02-08T05:36:35.127Z,1033.33
2023-02-08T05:37:35.156Z,1033.37
2023-02-08T05:38:35.139Z,1033.38
2023-02-08T05:39:35.117Z,1033.37
2023-02-08T05:40:35.124Z,1033.39
2023-02-08T05:41:35.152Z,1033.38
2023-02-08T05:42:35.119Z,1033.37
2023-02-08T05:43:35.135Z,1033.38
2023-02-08T05:44:34.406Z,1033.38
2023-02-08T05:45:35.144Z,1033.38
2023-02-08T05:46:36.524Z,1033.33
2023-02-08T05:47:35.123Z,1033.32
2023-02-08T05:48:35.120Z,1033.35
2023-02-08T05:49:34.385Z,1033.32
2023-02-08T05:50:33.379Z,1033.33
2023-02-08T05:51:34.638Z,1033.32
2023-02-08T05:52:34.382Z,1033.32
2023-02-08T05:53:34.364Z,1033.32
2023-02-08T05:54:34.367Z,1033.34
2023-02-08T05:55:33.353Z,1033.33
2023-02-08T05:56:35.146Z,1033.30
2023-02-08T05:57:35.678Z,1033.30
2023-02-08T05:58:35.140Z,1033.31
2023-02-08T05:59:34.341Z,1033.32
2023-02-08T06:00:35.154Z,1033.32
2023-02-08T06:01:33.323Z,1033.30
2023-02-08T06:02:35.131Z,1033.31
2023-02-08T06:03:35.150Z,1033.29
2023-02-08T06:04:34.315Z,1033.31
2023-02-08T06:05:35.142Z,1033.27
2023-02-08T06:06:35.144Z,1033.24
2023-02-08T06:07:34.295Z,1033.22
2023-02-08T06:08:35.158Z,1033.23
2023-02-08T06:09:34.285Z,1033.18
2023-02-08T06:10:35.136Z,1033.19
2023-02-08T06:11:35.187Z,1033.20
2023-02-08T06:12:35.144Z,1033.16
2023-02-08T06:13:33.282Z,1033.09
2023-02-08T06:14:33.256Z,1033.13
2023-02-08T06:15:35.187Z,1033.17
2023-02-08T06:16:33.269Z,1033.12
2023-02-08T06:17:33.252Z,1033.12
2023-02-08T06:18:33.244Z,1033.12
2023-02-08T06:19:33.248Z,1033.12
2023-02-08T06:20:34.660Z,1033.08
2023-02-08T06:21:34.657Z,1033.10
2023-02-08T06:22:33.232Z,1033.11
2023-02-08T06:23:34.222Z,1033.10
2023-02-08T06:24:35.168Z,1033.09
2023-02-08T06:25:35.151Z,1033.14
2023-02-08T06:26:35.164Z,1033.13
2023-02-08T06:27:35.149Z,1033.13
2023-02-08T06:28:35.147Z,1033.12
2023-02-08T06:29:35.148Z,1033.14
2023-02-08T06:30:35.150Z,1033.15
2023-02-08T06:31:35.193Z,1033.16
2023-02-08T06:32:33.365Z,1033.14
2023-02-08T06:33:34.180Z,1033.16
2023-02-08T06:34:34.672Z,1033.18
2023-02-08T06:35:34.668Z,1033.16
2023-02-08T06:36:34.682Z,1033.16
2023-02-08T06:37:34.665Z,1033.13
2023-02-08T06:38:33.144Z,1033.16
2023-02-08T06:39:34.152Z,1033.21
2023-02-08T06:40:34.670Z,1033.25
2023-02-08T06:41:34.682Z,1033.24
2023-02-08T06:42:34.661Z,1033.25
2023-02-08T06:43:34.150Z,1033.24
2023-02-08T06:44:34.662Z,1033.25
2023-02-08T06:45:33.159Z,1033.22
2023-02-08T06:46:34.701Z,1033.25
2023-02-08T06:47:34.104Z,1033.26
2023-02-08T06:48:33.088Z,1033.24
2023-02-08T06:49:33.098Z,1033.22
2023-02-08T06:50:34.115Z,1033.26
2023-02-08T06:51:35.216Z,1033.23
2023-02-08T06:52:34.070Z,1033.26
2023-02-08T06:53:34.207Z,1033.27
2023-02-08T06:54:33.428Z,1033.25
2023-02-08T06:55:33.052Z,1033.25
2023-02-08T06:56:33.115Z,1033.27
2023-02-08T06:57:34.712Z,1033.23
2023-02-08T06:58:34.723Z,1033.24
2023-02-08T06:59:33.116Z,1033.25
2023-02-08T07:00:33.042Z,1033.24
2023-02-08T07:01:34.713Z,1033.24
2023-02-08T07:02:34.737Z,1033.23
2023-02-08T07:03:33.702Z,1033.25
2023-02-08T07:04:34.684Z,1033.25
2023-02-08T07:05:34.683Z,1033.26
2023-02-08T07:06:34.681Z,1033.30
2023-02-08T07:07:34.684Z,1033.27
2023-02-08T07:08:34.702Z,1033.30
2023-02-08T07:09:34.700Z,1033.34
2023-02-08T07:10:34.685Z,1033.34
2023-02-08T07:11:34.715Z,1033.33
2023-02-08T07:12:34.708Z,1033.37
2023-02-08T07:13:34.691Z,1033.38
2023-02-08T07:14:32.965Z,1033.35
2023-02-08T07:15:32.964Z,1033.38
2023-02-08T07:16:33.009Z,1033.40
2023-02-08T07:17:34.707Z,1033.38
2023-02-08T07:18:32.946Z,1033.36
2023-02-08T07:19:32.939Z,1033.32
2023-02-08T07:20:34.713Z,1033.37
2023-02-08T07:21:34.216Z,1033.38
2023-02-08T07:22:32.921Z,1033.41
2023-02-08T07:23:34.720Z,1033.38
2023-02-08T07:24:32.940Z,1033.40
2023-02-08T07:25:34.719Z,1033.40
2023-02-08T07:26:33.060Z,1033.44
2023-02-08T07:27:34.715Z,1033.44
2023-02-08T07:28:33.041Z,1033.43
2023-02-08T07:29:34.712Z,1033.42
2023-02-08T07:30:32.939Z,1033.39
2023-02-08T07:31:35.726Z,1033.37
2023-02-08T07:32:34.777Z,1033.31
2023-02-08T07:33:34.727Z,1033.35
2023-02-08T07:34:34.734Z,1033.29
2023-02-08T07:35:34.709Z,1033.31
2023-02-08T07:36:32.852Z,1033.30
2023-02-08T07:37:34.724Z,1033.28
2023-02-08T07:38:34.727Z,1033.29
2023-02-08T07:39:34.748Z,1033.26
2023-02-08T07:40:34.753Z,1033.27
2023-02-08T07:41:34.767Z,1033.24
2023-02-08T07:42:34.761Z,1033.24
2023-02-08T07:43:34.725Z,1033.22
2023-02-08T07:44:34.714Z,1033.26
2023-02-08T07:45:34.751Z,1033.25
2023-02-08T07:46:34.714Z,1033.21
2023-02-08T07:47:34.759Z,1033.24
2023-02-08T07:48:34.726Z,1033.21
2023-02-08T07:49:32.795Z,1033.21
2023-02-08T07:50:32.799Z,1033.22
2023-02-08T07:51:32.791Z,1033.22
2023-02-08T07:52:32.780Z,1033.20
2023-02-08T07:53:34.266Z,1033.20
2023-02-08T07:54:32.771Z,1033.19
2023-02-08T07:55:32.763Z,1033.21
2023-02-08T07:56:32.817Z,1033.13
2023-02-08T07:57:34.740Z,1033.16
2023-02-08T07:58:33.797Z,1033.14
2023-02-08T07:59:34.760Z,1033.17
2023-02-08T08:00:35.248Z,1033.15
2023-02-08T08:01:34.287Z,1033.12
2023-02-08T08:02:34.290Z,1033.12
2023-02-08T08:03:32.721Z,1033.17
2023-02-08T08:04:34.238Z,1033.17
2023-02-08T08:05:34.235Z,1033.18
2023-02-08T08:06:34.243Z,1033.20
2023-02-08T08:07:34.242Z,1033.23
2023-02-08T08:08:34.249Z,1033.21
2023-02-08T08:09:34.286Z,1033.24
2023-02-08T08:10:34.260Z,1033.20
2023-02-08T08:12:34.247Z,1033.23
2023-02-08T08:14:34.243Z,1033.20
2023-02-08T08:15:34.283Z,1033.23
2023-02-08T08:16:34.375Z,1033.22
2023-02-08T08:17:34.242Z,1033.24
2023-02-08T08:18:34.258Z,1033.24
2023-02-08T08:19:34.248Z,1033.25
2023-02-08T08:21:34.260Z,1033.27
2023-02-08T08:22:34.254Z,1033.31
2023-02-08T08:23:34.272Z,1033.28
2023-02-08T08:24:34.261Z,1033.31
2023-02-08T08:25:34.641Z,1033.32
2023-02-08T08:26:34.254Z,1033.34
2023-02-08T08:27:34.267Z,1033.28
2023-02-08T08:28:34.396Z,1033.26
2023-02-08T08:29:34.267Z,1033.33
2023-02-08T08:30:32.637Z,1033.29
2023-02-08T08:31:35.817Z,1033.31
2023-02-08T08:32:32.623Z,1033.26
2023-02-08T08:33:35.831Z,1033.23
2023-02-08T08:34:32.577Z,1033.18
2023-02-08T08:35:35.281Z,1033.19
2023-02-08T08:36:32.708Z,1033.16
2023-02-08T08:37:34.321Z,1033.17
2023-02-08T08:38:32.574Z,1033.09
2023-02-08T08:39:32.583Z,1033.08
2023-02-08T08:40:32.739Z,1033.07
2023-02-08T08:41:32.548Z,1033.05
2023-02-08T08:42:34.289Z,1033.04
2023-02-08T08:43:34.297Z,1033.02
2023-02-08T08:44:34.550Z,1032.98
2023-02-08T08:45:32.547Z,1032.96
2023-02-08T08:46:34.119Z,1032.93
2023-02-08T08:47:32.561Z,1032.91
2023-02-08T08:48:33.021Z,1032.94
2023-02-08T08:49:32.540Z,1032.93
2023-02-08T08:50:34.304Z,1032.94
2023-02-08T08:51:32.641Z,1032.95
2023-02-08T08:52:32.504Z,1032.94
2023-02-08T08:53:32.631Z,1032.93
2023-02-08T08:54:34.494Z,1032.93
2023-02-08T08:55:33.452Z,1032.92
2023-02-08T08:56:32.532Z,1032.98
2023-02-08T08:57:32.490Z,1033.02
2023-02-08T08:58:32.486Z,1033.01
2023-02-08T08:59:34.382Z,1033.01
2023-02-08T09:00:32.478Z,1033.00
2023-02-08T09:01:34.825Z,1032.99
2023-02-08T09:02:34.359Z,1032.96
2023-02-08T09:03:34.846Z,1032.90
2023-02-08T09:04:32.942Z,1032.88
2023-02-08T09:05:32.545Z,1032.83
2023-02-08T09:06:34.287Z,1032.83
2023-02-08T09:07:34.302Z,1032.81
2023-02-08T09:08:34.324Z,1032.82
2023-02-08T09:09:34.296Z,1032.82
2023-02-08T09:10:34.777Z,1032.81
2023-02-08T09:11:32.435Z,1032.79
2023-02-08T09:12:34.432Z,1032.81
2023-02-08T09:13:34.288Z,1032.80
2023-02-08T09:14:34.283Z,1032.82
2023-02-08T09:15:34.286Z,1032.82
2023-02-08T09:16:32.770Z,1032.81
2023-02-08T09:17:34.307Z,1032.89
2023-02-08T09:18:34.305Z,1032.84
2023-02-08T09:19:34.294Z,1032.87
2023-02-08T09:20:37.452Z,1032.88
2023-02-08T09:21:33.086Z,1032.85
2023-02-08T09:22:33.063Z,1032.89
2023-02-08T09:23:34.431Z,1032.91
2023-02-08T09:24:34.412Z,1032.91
2023-02-08T09:25:32.383Z,1032.93
2023-02-08T09:27:33.904Z,1032.86
2023-02-08T09:28:32.405Z,1032.92
2023-02-08T09:29:32.366Z,1032.92
2023-02-08T09:30:32.362Z,1032.91
2023-02-08T09:31:32.478Z,1032.97
2023-02-08T09:32:34.458Z,1033.01
2023-02-08T09:33:32.402Z,1033.01
2023-02-08T09:34:34.331Z,1033.03
2023-02-08T09:36:34.354Z,1032.99
2023-02-08T09:38:34.810Z,1032.97
2023-02-08T09:39:34.328Z,1032.96
2023-02-08T09:40:34.331Z,1032.95
2023-02-08T09:41:34.323Z,1032.97
2023-02-08T09:42:34.317Z,1032.97
2023-02-08T09:43:34.345Z,1032.97
2023-02-08T09:45:34.314Z,1033.03
2023-02-08T09:46:34.922Z,1033.01
2023-02-08T09:47:35.071Z,1033.00
2023-02-08T09:48:33.828Z,1033.00
2023-02-08T09:49:34.041Z,1032.98
2023-02-08T09:50:35.974Z,1033.01
2023-02-08T09:51:34.443Z,1032.95
2023-02-08T09:52:33.445Z,1032.95
2023-02-08T09:53:33.824Z,1032.97
2023-02-08T09:54:33.828Z,1032.98
2023-02-08T09:55:33.879Z,1032.97
2023-02-08T09:56:34.216Z,1033.01
2023-02-08T09:58:34.466Z,1032.98
2023-02-08T09:59:34.049Z,1033.03
2023-02-08T10:00:33.892Z,1033.00
2023-02-08T10:01:32.297Z,1033.06
2023-02-08T10:02:33.999Z,1033.04
2023-02-08T10:13:47.423Z,1033.06
2023-02-08T10:15:47.386Z,1033.00
2023-02-08T10:16:47.383Z,1033.00
2023-02-08T10:17:49.198Z,1033.00
2023-02-08T10:18:47.364Z,1033.03
2023-02-08T10:19:50.583Z,1033.00
2023-02-08T10:20:47.451Z,1033.02
2023-02-08T10:21:47.378Z,1033.00
2023-02-08T10:22:47.457Z,1032.98
2023-02-08T10:23:47.358Z,1032.99
2023-02-08T10:24:49.178Z,1032.98
2023-02-08T10:25:47.528Z,1033.00
2023-02-08T10:26:47.515Z,1032.98
2023-02-08T10:27:48.044Z,1033.01
2023-02-08T10:28:47.801Z,1032.96
2023-02-08T10:29:49.346Z,1032.97
2023-02-08T10:30:47.716Z,1032.92
2023-02-08T10:31:49.394Z,1032.92
2023-02-08T10:32:47.546Z,1032.90
2023-02-08T10:33:47.414Z,1032.87
2023-02-08T10:34:48.419Z,1032.88
2023-02-08T10:35:47.346Z,1032.86
2023-02-08T10:36:47.543Z,1032.87
2023-02-08T10:37:47.511Z,1032.87
2023-02-08T10:38:47.470Z,1032.86
2023-02-08T10:39:49.157Z,1032.86
2023-02-08T10:40:47.438Z,1032.86
2023-02-08T10:41:49.175Z,1032.84
2023-02-08T10:42:47.876Z,1032.87
2023-02-08T10:43:47.858Z,1032.84
2023-02-08T10:44:48.435Z,1032.88
2023-02-08T10:45:47.545Z,1032.84
2023-02-08T10:46:52.053Z,1032.86
2023-02-08T10:47:47.725Z,1032.90
2023-02-08T10:48:49.198Z,1032.90
2023-02-08T10:49:47.333Z,1032.90
2023-02-08T10:50:49.176Z,1032.91
2023-02-08T10:52:49.194Z,1032.90
2023-02-08T10:53:49.156Z,1032.86
2023-02-08T10:54:49.167Z,1032.83
2023-02-08T10:55:49.157Z,1032.80
2023-02-08T10:56:49.178Z,1032.80
2023-02-08T10:57:49.162Z,1032.78
2023-02-08T10:58:49.158Z,1032.79
2023-02-08T10:59:49.163Z,1032.75
2023-02-08T11:00:49.228Z,1032.76
2023-02-08T11:01:49.170Z,1032.74
2023-02-08T11:02:49.186Z,1032.73
2023-02-08T11:03:49.175Z,1032.74
2023-02-08T11:04:49.162Z,1032.74
2023-02-08T11:05:49.156Z,1032.71
2023-02-08T11:06:49.171Z,1032.73
2023-02-08T11:07:49.174Z,1032.71
2023-02-08T11:08:49.184Z,1032.71
2023-02-08T11:09:49.179Z,1032.72
2023-02-08T11:10:49.174Z,1032.73
2023-02-08T11:11:49.200Z,1032.73
2023-02-08T11:12:49.167Z,1032.79
2023-02-08T11:13:49.181Z,1032.76
2023-02-08T11:14:49.196Z,1032.76
2023-02-08T11:15:49.169Z,1032.73
2023-02-08T11:16:48.640Z,1032.70
2023-02-08T11:17:49.200Z,1032.74
2023-02-08T11:18:47.332Z,1032.71
2023-02-08T11:19:48.693Z,1032.73
2023-02-08T11:20:47.322Z,1032.70
2023-02-08T11:21:47.318Z,1032.68
2023-02-08T11:22:47.325Z,1032.70
2023-02-08T11:23:49.196Z,1032.69
2023-02-08T11:24:49.181Z,1032.72
2023-02-08T11:25:49.178Z,1032.66
2023-02-08T11:26:49.184Z,1032.66
2023-02-08T11:27:49.254Z,1032.67
2023-02-08T11:28:49.184Z,1032.65
2023-02-08T11:29:49.197Z,1032.59
2023-02-08T11:30:49.209Z,1032.61
2023-02-08T11:31:49.260Z,1032.58
2023-02-08T11:32:49.222Z,1032.59
2023-02-08T11:33:49.189Z,1032.61
2023-02-08T11:34:49.190Z,1032.63
2023-02-08T11:35:49.189Z,1032.61
2023-02-08T11:36:49.207Z,1032.60
2023-02-08T11:37:49.214Z,1032.62
2023-02-08T11:38:49.198Z,1032.56
2023-02-08T11:39:49.199Z,1032.53
2023-02-08T11:40:49.209Z,1032.57
2023-02-08T11:41:49.194Z,1032.52
2023-02-08T11:42:49.213Z,1032.55
2023-02-08T11:43:49.220Z,1032.54
2023-02-08T11:44:49.294Z,1032.48
2023-02-08T11:45:49.278Z,1032.51
2023-02-08T11:46:49.222Z,1032.52
2023-02-08T11:47:49.261Z,1032.50
2023-02-08T11:48:49.249Z,1032.46
2023-02-08T11:49:49.161Z,1032.50
2023-02-08T11:50:47.553Z,1032.49
2023-02-08T11:51:47.324Z,1032.48
2023-02-08T11:52:47.324Z,1032.49
2023-02-08T11:53:49.225Z,1032.49
2023-02-08T11:54:47.307Z,1032.44
2023-02-08T11:55:47.304Z,1032.43
2023-02-08T11:56:47.315Z,1032.41
2023-02-08T11:57:48.307Z,1032.41
2023-02-08T11:58:49.228Z,1032.37
2023-02-08T11:59:48.322Z,1032.31
2023-02-08T12:00:47.313Z,1032.30
2023-02-08T12:01:49.304Z,1032.28
2023-02-08T12:02:47.315Z,1032.27
2023-02-08T12:03:49.304Z,1032.29
2023-02-08T12:04:47.331Z,1032.27
2023-02-08T12:05:47.306Z,1032.25
2023-02-08T12:06:49.227Z,1032.19
2023-02-08T12:07:48.740Z,1032.17
2023-02-08T12:08:49.328Z,1032.20
2023-02-08T12:09:47.305Z,1032.16
2023-02-08T12:10:52.261Z,1032.14
2023-02-08T12:11:47.315Z,1032.12
2023-02-08T12:12:49.233Z,1032.15
2023-02-08T12:13:48.781Z,1032.15
2023-02-08T12:14:49.231Z,1032.13
2023-02-08T12:15:58.332Z,1032.09
2023-02-08T12:16:49.407Z,1032.08
2023-02-08T12:17:49.264Z,1032.05
2023-02-08T12:18:48.711Z,1032.10
2023-02-08T12:19:47.484Z,1032.07
2023-02-08T12:20:47.631Z,1032.08
2023-02-08T12:21:49.255Z,1032.04
2023-02-08T12:22:47.850Z,1032.09
2023-02-08T12:23:49.270Z,1032.07
2023-02-08T12:24:47.313Z,1032.04
2023-02-08T12:25:47.581Z,1032.06
2023-02-08T12:26:49.257Z,1032.02
2023-02-08T12:27:49.365Z,1032.01
2023-02-08T12:28:49.320Z,1031.95
2023-02-08T12:29:49.271Z,1031.97
2023-02-08T12:30:49.348Z,1031.97
2023-02-08T12:31:49.288Z,1031.95
2023-02-08T12:32:49.283Z,1031.90
2023-02-08T12:33:49.274Z,1031.91
2023-02-08T12:34:49.304Z,1031.89
2023-02-08T12:36:03.257Z,1031.91
2023-02-08T12:36:49.293Z,1031.80
2023-02-08T12:37:49.289Z,1031.82
2023-02-08T12:38:49.250Z,1031.82
2023-02-08T12:39:49.279Z,1031.82
2023-02-08T12:40:49.310Z,1031.81
2023-02-08T12:41:49.256Z,1031.82
2023-02-08T12:42:49.255Z,1031.78
2023-02-08T12:43:49.271Z,1031.72
2023-02-08T12:44:49.272Z,1031.74
2023-02-08T12:45:49.277Z,1031.71
2023-02-08T12:46:49.257Z,1031.71
2023-02-08T12:48:03.080Z,1031.68
2023-02-08T12:48:49.276Z,1031.65
2023-02-08T12:49:49.263Z,1031.62
2023-02-08T12:50:49.264Z,1031.56
2023-02-08T12:51:49.279Z,1031.52
2023-02-08T12:52:47.395Z,1031.52
2023-02-08T12:53:49.290Z,1031.45
2023-02-08T12:54:49.496Z,1031.47
2023-02-08T12:55:47.365Z,1031.46
2023-02-08T12:57:00.334Z,1031.47
2023-02-08T12:57:47.373Z,1031.44
2023-02-08T12:58:47.382Z,1031.40
2023-02-08T12:59:47.404Z,1031.43
2023-02-08T13:00:48.297Z,1031.43
2023-02-08T13:01:49.295Z,1031.42
2023-02-08T13:02:49.343Z,1031.39
2023-02-08T13:03:49.340Z,1031.39
2023-02-08T13:04:49.292Z,1031.35
2023-02-08T13:06:01.653Z,1031.40
2023-02-08T13:06:49.298Z,1031.39
2023-02-08T13:07:49.283Z,1031.35
2023-02-08T13:08:47.432Z,1031.34
2023-02-08T13:09:49.312Z,1031.30
2023-02-08T13:10:49.307Z,1031.30
2023-02-08T13:11:49.372Z,1031.29
2023-02-08T13:12:47.425Z,1031.24
2023-02-08T13:13:49.297Z,1031.27
2023-02-08T13:14:47.451Z,1031.22
2023-02-08T13:15:47.763Z,1031.17
2023-02-08T13:16:50.309Z,1031.18
2023-02-08T13:17:47.466Z,1031.16
2023-02-08T13:18:47.465Z,1031.11
2023-02-08T13:19:59.608Z,1031.15
2023-02-08T13:20:49.314Z,1031.12
2023-02-08T13:21:47.468Z,1031.15
2023-02-08T13:22:47.476Z,1031.12
2023-02-08T13:23:52.895Z,1031.13
2023-02-08T13:24:52.457Z,1031.14
2023-02-08T13:25:49.336Z,1031.08
2023-02-08T13:26:49.347Z,1031.09
2023-02-08T13:27:47.509Z,1031.06
2023-02-08T13:28:49.332Z,1031.05
2023-02-08T13:29:47.511Z,1031.03
2023-02-08T13:30:49.399Z,1030.99
2023-02-08T13:31:49.359Z,1031.00
2023-02-08T13:32:47.514Z,1031.00
2023-02-08T13:34:00.933Z,1030.99
2023-02-08T13:34:49.355Z,1030.99
2023-02-08T13:35:47.528Z,1030.94
2023-02-08T13:36:47.537Z,1030.94
2023-02-08T13:37:49.324Z,1030.96
2023-02-08T13:38:47.563Z,1030.94
2023-02-08T13:39:49.339Z,1030.94
2023-02-08T13:40:47.600Z,1030.93
2023-02-08T13:41:49.364Z,1030.88
2023-02-08T13:42:49.343Z,1030.87
2023-02-08T13:43:47.588Z,1030.88
2023-02-08T13:44:47.575Z,1030.83
2023-02-08T13:45:47.584Z,1030.84
2023-02-08T13:46:49.363Z,1030.86
2023-02-08T13:47:47.604Z,1030.81
2023-02-08T13:48:49.338Z,1030.79
2023-02-08T13:49:49.372Z,1030.74
2023-02-08T13:50:49.385Z,1030.71
2023-02-08T13:51:49.364Z,1030.71
2023-02-08T13:52:48.898Z,1030.68
2023-02-08T13:53:47.636Z,1030.71
2023-02-08T13:54:47.628Z,1030.68
2023-02-08T13:55:49.360Z,1030.65
2023-02-08T13:56:49.409Z,1030.61
2023-02-08T13:57:47.655Z,1030.63
2023-02-08T13:58:47.647Z,1030.59
2023-02-08T13:59:47.652Z,1030.59
2023-02-08T14:00:47.658Z,1030.58
2023-02-08T14:01:49.428Z,1030.58
2023-02-08T14:02:49.377Z,1030.61
2023-02-08T14:03:49.382Z,1030.62
2023-02-08T14:04:49.383Z,1030.61
2023-02-08T14:05:49.366Z,1030.56
2023-02-08T14:06:49.385Z,1030.58
2023-02-08T14:08:49.384Z,1030.54
2023-02-08T14:09:49.365Z,1030.52
2023-02-08T14:10:49.384Z,1030.48
2023-02-08T14:11:49.383Z,1030.50
2023-02-08T14:12:49.423Z,1030.47
2023-02-08T14:13:49.384Z,1030.47
2023-02-08T14:14:49.385Z,1030.44
2023-02-08T14:15:49.408Z,1030.44
2023-02-08T14:16:49.375Z,1030.42
2023-02-08T14:17:49.379Z,1030.37
2023-02-08T14:18:47.746Z,1030.36
2023-02-08T14:19:49.400Z,1030.36
2023-02-08T14:20:47.763Z,1030.35
2023-02-08T14:21:47.777Z,1030.34
2023-02-08T14:22:47.760Z,1030.32
2023-02-08T14:23:47.794Z,1030.27
2023-02-08T14:24:49.392Z,1030.27
2023-02-08T14:25:47.807Z,1030.24
2023-02-08T14:26:47.796Z,1030.22
2023-02-08T14:27:47.787Z,1030.27
2023-02-08T14:28:47.823Z,1030.25
2023-02-08T14:29:49.409Z,1030.24
2023-02-08T14:30:48.041Z,1030.26
2023-02-08T14:31:48.008Z,1030.23
2023-02-08T14:32:49.400Z,1030.21
2023-02-08T14:33:49.428Z,1030.22
2023-02-08T14:34:49.402Z,1030.21
2023-02-08T14:35:49.389Z,1030.18
2023-02-08T14:36:49.388Z,1030.18
2023-02-08T14:37:47.831Z,1030.15
2023-02-08T14:38:49.392Z,1030.13
2023-02-08T14:39:49.410Z,1030.13
2023-02-08T14:40:49.398Z,1030.12
2023-02-08T14:41:49.396Z,1030.10
2023-02-08T14:42:49.431Z,1030.06
2023-02-08T14:43:47.876Z,1030.07
2023-02-08T14:45:48.214Z,1030.07
2023-02-08T14:46:49.491Z,1030.09
2023-02-08T14:47:49.407Z,1030.03
2023-02-08T14:48:50.424Z,1030.05
2023-02-08T14:49:49.404Z,1030.00
2023-02-08T14:50:47.888Z,1030.04
2023-02-08T14:51:47.886Z,1030.02
2023-02-08T14:52:47.892Z,1030.05
2023-02-08T14:53:47.923Z,1030.03
2023-02-08T14:54:49.430Z,1030.01
2023-02-08T14:55:47.899Z,1029.99
2023-02-08T14:56:47.905Z,1029.97
2023-02-08T14:57:47.906Z,1029.99
2023-02-08T14:58:49.434Z,1029.98
2023-02-08T14:59:47.910Z,1030.03
2023-02-08T15:00:47.991Z,1030.01
2023-02-08T15:01:47.932Z,1030.00
2023-02-08T15:02:49.445Z,1030.01
2023-02-08T15:03:47.968Z,1030.00
2023-02-08T15:04:49.439Z,1029.94
2023-02-08T15:05:47.929Z,1029.98
2023-02-08T15:06:51.102Z,1029.93
2023-02-08T15:07:49.441Z,1029.97
2023-02-08T15:08:47.932Z,1030.00
2023-02-08T15:09:47.940Z,1029.95
2023-02-08T15:10:47.941Z,1029.99
2023-02-08T15:11:49.930Z,1029.96
2023-02-08T15:12:49.471Z,1029.95
2023-02-08T15:13:47.941Z,1029.93
2023-02-08T15:14:49.467Z,1029.95
2023-02-08T15:15:47.949Z,1029.97
2023-02-08T15:16:49.557Z,1029.98
2023-02-08T15:17:48.980Z,1029.95
2023-02-08T15:18:48.957Z,1029.94
2023-02-08T15:19:49.473Z,1029.92
2023-02-08T15:20:47.968Z,1029.94
2023-02-08T15:21:49.962Z,1029.95
2023-02-08T15:22:47.979Z,1029.93
2023-02-08T15:23:49.962Z,1029.92
2023-02-08T15:24:49.962Z,1029.95
2023-02-08T15:25:48.957Z,1029.93
2023-02-08T15:26:47.957Z,1029.91
2023-02-08T15:27:48.999Z,1029.93
2023-02-08T15:28:49.968Z,1029.94
2023-02-08T15:29:48.929Z,1029.98
2023-02-08T15:30:47.990Z,1029.91
2023-02-08T15:31:48.041Z,1029.96
2023-02-08T15:32:47.955Z,1029.92
2023-02-08T15:33:49.497Z,1029.90
2023-02-08T15:34:48.954Z,1029.92
2023-02-08T15:35:49.462Z,1029.88
2023-02-08T15:36:49.458Z,1029.88
2023-02-08T15:37:49.476Z,1029.85
2023-02-08T15:38:49.479Z,1029.80
2023-02-08T15:39:49.470Z,1029.87
2023-02-08T15:40:49.488Z,1029.85
2023-02-08T15:41:49.474Z,1029.82
2023-02-08T15:42:49.461Z,1029.83
2023-02-08T15:43:49.456Z,1029.84
2023-02-08T15:44:49.462Z,1029.85
2023-02-08T15:45:49.553Z,1029.80
2023-02-08T15:46:49.482Z,1029.80
2023-02-08T15:47:49.467Z,1029.81
2023-02-08T15:48:48.933Z,1029.82
2023-02-08T15:49:49.504Z,1029.79
2023-02-08T15:50:49.482Z,1029.78
2023-02-08T15:51:49.485Z,1029.73
2023-02-08T15:52:49.480Z,1029.77
2023-02-08T15:53:48.064Z,1029.76
2023-02-08T15:54:49.484Z,1029.76
2023-02-08T15:55:47.924Z,1029.73
2023-02-08T15:56:47.932Z,1029.72
2023-02-08T15:57:48.999Z,1029.69
2023-02-08T15:58:47.926Z,1029.66
2023-02-08T15:59:47.922Z,1029.65
2023-02-08T16:00:49.013Z,1029.64
2023-02-08T16:13:00.341Z,1029.51
2023-02-08T16:13:59.366Z,1029.47
2023-02-08T16:14:59.838Z,1029.42
2023-02-08T16:16:08.467Z,1029.44
2023-02-08T16:16:59.438Z,1029.41
2023-02-08T16:17:58.337Z,1029.37
2023-02-08T16:19:00.322Z,1029.36
2023-02-08T16:20:00.314Z,1029.38
2023-02-08T16:20:59.386Z,1029.38
2023-02-08T16:21:58.327Z,1029.35
2023-02-08T16:23:00.310Z,1029.35
2023-02-08T16:23:59.813Z,1029.31
2023-02-08T16:24:58.319Z,1029.31
2023-02-08T16:25:59.829Z,1029.28
2023-02-08T16:26:59.833Z,1029.29
2023-02-08T16:27:59.863Z,1029.29
2023-02-08T16:28:59.904Z,1029.29
2023-02-08T16:29:59.836Z,1029.25
2023-02-08T16:30:59.489Z,1029.28
2023-02-08T16:31:58.317Z,1029.26
2023-02-08T16:32:58.298Z,1029.26
2023-02-08T16:33:59.302Z,1029.27
2023-02-08T16:34:59.287Z,1029.30
2023-02-08T16:35:59.345Z,1029.24
2023-02-08T16:36:59.333Z,1029.30
2023-02-08T16:37:58.272Z,1029.29
2023-02-08T16:38:58.280Z,1029.27